Time,TemperatureF,DewpointF,PressureIn,WindDirection,WindDirectionDegrees,WindSpeedMPH,WindSpeedGustMPH,Humidity,HourlyPrecipIn,Conditions,Clouds,dailyrainin,SoftwareType,DateUTC
2013-09-15 00:01:00,57.0,55.0,29.79,NE,37,2.0,11.0,93,0.00,,,0.00,meteohub,2013-09-15 07:01:00,
2013-09-15 00:07:00,56.8,54.9,29.79,NW,317,4.0,11.0,93,0.00,,,0.00,meteohub,2013-09-15 07:07:00,
2013-09-15 00:12:00,56.8,54.9,29.79,NNW,347,6.0,11.0,93,0.00,,,0.00,meteohub,2013-09-15 07:12:00,
2013-09-15 00:17:00,56.8,54.9,29.79,NNW,340,5.0,10.0,93,0.00,,,0.00,meteohub,2013-09-15 07:17:00,
2013-09-15 00:22:00,56.8,54.9,29.79,NNW,336,4.0,8.0,93,0.00,,,0.00,meteohub,2013-09-15 07:22:00,
2013-09-15 00:27:00,56.8,54.9,29.79,NNW,342,4.0,8.0,93,0.00,,,0.00,meteohub,2013-09-15 07:27:00,
2013-09-15 00:32:00,56.8,54.9,29.79,North,354,1.0,11.0,93,0.00,,,0.00,meteohub,2013-09-15 07:32:00,
2013-09-15 00:37:00,56.8,54.9,29.79,North,356,3.0,11.0,93,0.00,,,0.00,meteohub,2013-09-15 07:37:00,
2013-09-15 00:42:00,56.8,54.9,29.79,NNW,340,4.0,11.0,93,0.00,,,0.00,meteohub,2013-09-15 07:42:00,
2013-09-15 00:47:00,56.8,54.9,29.79,NNE,29,2.0,10.0,93,0.00,,,0.00,meteohub,2013-09-15 07:47:00,
2013-09-15 00:52:00,56.8,54.9,29.79,West,274,1.0,10.0,93,0.00,,,0.00,meteohub,2013-09-15 07:52:00,
2013-09-15 00:57:00,56.7,54.7,29.79,North,356,6.0,10.0,93,0.00,,,0.00,meteohub,2013-09-15 07:57:00,
2013-09-15 01:02:00,56.7,54.7,29.79,NNE,30,0.0,10.0,93,0.00,,,0.00,meteohub,2013-09-15 08:02:00,
2013-09-15 01:07:00,56.7,54.7,29.79,NE,44,2.0,7.0,93,0.00,,,0.00,meteohub,2013-09-15 08:07:00,
2013-09-15 01:12:00,56.7,54.7,29.79,North,349,10.0,10.0,93,0.00,,,0.00,meteohub,2013-09-15 08:12:00,
2013-09-15 01:17:00,56.7,54.7,29.79,NW,311,3.0,12.0,93,0.00,,,0.00,meteohub,2013-09-15 08:17:00,
2013-09-15 01:22:00,56.7,54.7,29.79,NNW,328,3.0,12.0,93,0.00,,,0.00,meteohub,2013-09-15 08:22:00,
2013-09-15 01:27:00,56.7,54.7,29.79,NNW,331,5.0,12.0,93,0.00,,,0.00,meteohub,2013-09-15 08:27:00,
2013-09-15 01:32:00,56.7,54.7,29.79,NNW,330,3.0,10.0,93,0.00,,,0.00,meteohub,2013-09-15 08:32:00,
2013-09-15 01:37:00,56.7,54.7,29.79,NNW,338,5.0,10.0,93,0.00,,,0.00,meteohub,2013-09-15 08:37:00,
2013-09-15 01:42:00,56.7,54.7,29.80,NNE,29,4.0,10.0,93,0.00,,,0.00,meteohub,2013-09-15 08:42:00,
2013-09-15 01:47:00,56.7,54.7,29.80,NW,311,3.0,10.0,93,0.00,,,0.00,meteohub,2013-09-15 08:47:00,
2013-09-15 01:52:00,56.8,55.2,29.80,NNW,334,3.0,9.0,94,0.00,,,0.00,meteohub,2013-09-15 08:52:00,
2013-09-15 01:57:00,56.8,55.2,29.80,NNW,332,3.0,11.0,94,0.00,,,0.00,meteohub,2013-09-15 08:57:00,
2013-09-15 02:02:00,56.8,54.9,29.80,NE,41,4.0,11.0,93,0.00,,,0.00,meteohub,2013-09-15 09:02:00,
2013-09-15 02:07:00,56.8,54.9,29.80,NE,45,3.0,8.0,93,0.00,,,0.00,meteohub,2013-09-15 09:07:00,
2013-09-15 02:12:00,56.8,54.9,29.80,NNW,333,4.0,6.0,93,0.00,,,0.00,meteohub,2013-09-15 09:12:00,
2013-09-15 02:17:00,56.8,54.9,29.80,NNW,339,8.0,8.0,93,0.00,,,0.00,meteohub,2013-09-15 09:17:00,
2013-09-15 02:22:00,56.8,54.9,29.80,North,0,3.0,9.0,93,0.00,,,0.00,meteohub,2013-09-15 09:22:00,
2013-09-15 02:27:00,56.8,54.9,29.80,NW,326,5.0,9.0,93,0.00,,,0.00,meteohub,2013-09-15 09:27:00,
2013-09-15 02:32:00,56.8,54.9,29.80,NNW,340,4.0,9.0,93,0.00,,,0.00,meteohub,2013-09-15 09:32:00,
2013-09-15 02:37:00,56.8,54.9,29.80,NNW,345,7.0,11.0,93,0.00,,,0.00,meteohub,2013-09-15 09:37:00,
2013-09-15 02:42:00,57.0,55.0,29.80,NNE,15,7.0,11.0,93,0.00,,,0.00,meteohub,2013-09-15 09:42:00,
2013-09-15 02:47:00,57.0,55.0,29.80,NNW,338,5.0,10.0,93,0.00,,,0.00,meteohub,2013-09-15 09:47:00,
2013-09-15 02:52:00,57.0,55.0,29.80,NNE,13,7.0,10.0,93,0.00,,,0.00,meteohub,2013-09-15 09:52:00,
2013-09-15 02:57:00,57.0,55.0,29.80,NNW,345,5.0,11.0,93,0.00,,,0.00,meteohub,2013-09-15 09:57:00,
2013-09-15 03:02:00,57.0,55.0,29.80,North,352,13.0,13.0,93,0.00,,,0.00,meteohub,2013-09-15 10:02:00,
2013-09-15 03:07:00,57.0,55.0,29.80,NNW,336,8.0,14.0,93,0.00,,,0.00,meteohub,2013-09-15 10:07:00,
2013-09-15 03:12:00,57.0,55.0,29.80,North,355,7.0,14.0,93,0.00,,,0.00,meteohub,2013-09-15 10:12:00,
2013-09-15 03:17:00,57.0,55.0,29.80,NNW,335,4.0,14.0,93,0.00,,,0.00,meteohub,2013-09-15 10:17:00,
2013-09-15 03:22:00,57.0,54.7,29.80,NE,48,6.0,13.0,92,0.00,,,0.00,meteohub,2013-09-15 10:22:00,
2013-09-15 03:27:00,57.0,54.7,29.80,NNE,25,6.0,13.0,92,0.00,,,0.00,meteohub,2013-09-15 10:27:00,
2013-09-15 03:32:00,57.2,54.9,29.80,NNE,20,4.0,11.0,92,0.00,,,0.00,meteohub,2013-09-15 10:32:00,
2013-09-15 03:37:00,57.0,54.7,29.80,NW,316,2.0,9.0,92,0.00,,,0.00,meteohub,2013-09-15 10:37:00,
2013-09-15 03:42:00,57.2,54.9,29.80,North,353,4.0,9.0,92,0.00,,,0.00,meteohub,2013-09-15 10:42:00,
2013-09-15 03:47:00,57.2,54.9,29.80,SSW,204,1.0,13.0,92,0.00,,,0.00,meteohub,2013-09-15 10:47:00,
2013-09-15 03:52:00,57.2,54.9,29.80,NNE,23,3.0,13.0,92,0.00,,,0.00,meteohub,2013-09-15 10:52:00,
2013-09-15 03:57:00,57.2,54.9,29.80,NNW,338,3.0,13.0,92,0.00,,,0.00,meteohub,2013-09-15 10:57:00,
2013-09-15 04:02:00,57.0,54.7,29.81,WNW,291,6.0,12.0,92,0.00,,,0.00,meteohub,2013-09-15 11:02:00,
2013-09-15 04:07:00,57.0,54.7,29.81,NNW,338,7.0,12.0,92,0.00,,,0.00,meteohub,2013-09-15 11:07:00,
2013-09-15 04:12:00,57.2,54.9,29.81,North,359,3.0,10.0,92,0.00,,,0.00,meteohub,2013-09-15 11:12:00,
2013-09-15 04:17:00,57.0,54.7,29.81,NNE,15,4.0,11.0,92,0.00,,,0.00,meteohub,2013-09-15 11:17:00,
2013-09-15 04:22:00,57.0,54.7,29.81,NW,318,7.0,11.0,92,0.00,,,0.00,meteohub,2013-09-15 11:22:00,
2013-09-15 04:27:00,57.0,54.7,29.81,NNW,336,4.0,10.0,92,0.00,,,0.00,meteohub,2013-09-15 11:27:00,
2013-09-15 04:32:00,57.0,54.7,29.81,NW,323,3.0,12.0,92,0.00,,,0.00,meteohub,2013-09-15 11:32:00,
2013-09-15 04:38:00,57.0,54.7,29.81,NW,326,4.0,12.0,92,0.00,,,0.00,meteohub,2013-09-15 11:38:00,
2013-09-15 04:43:00,57.0,54.7,29.81,NNW,339,6.0,12.0,92,0.00,,,0.00,meteohub,2013-09-15 11:43:00,
2013-09-15 04:48:00,57.0,54.7,29.81,NNW,333,4.0,10.0,92,0.00,,,0.00,meteohub,2013-09-15 11:48:00,
2013-09-15 04:53:00,57.0,54.7,29.81,NNW,336,3.0,10.0,92,0.00,,,0.00,meteohub,2013-09-15 11:53:00,
2013-09-15 04:58:00,57.0,54.7,29.81,North,5,12.0,14.0,92,0.00,,,0.00,meteohub,2013-09-15 11:58:00,
2013-09-15 05:03:00,57.2,54.9,29.81,NNW,346,5.0,15.0,92,0.00,,,0.00,meteohub,2013-09-15 12:03:00,
2013-09-15 05:08:00,57.4,54.9,29.81,North,355,6.0,15.0,91,0.00,,,0.00,meteohub,2013-09-15 12:08:00,
2013-09-15 05:13:00,57.2,54.7,29.81,North,1,13.0,15.0,91,0.00,,,0.00,meteohub,2013-09-15 12:13:00,
2013-09-15 05:18:00,57.4,54.9,29.81,SW,215,2.0,14.0,91,0.00,,,0.00,meteohub,2013-09-15 12:18:00,
2013-09-15 05:23:00,57.4,54.9,29.81,NW,326,5.0,14.0,91,0.00,,,0.00,meteohub,2013-09-15 12:23:00,
2013-09-15 05:28:00,57.4,54.9,29.81,NNW,338,0.0,13.0,91,0.00,,,0.00,meteohub,2013-09-15 12:28:00,
2013-09-15 05:34:00,57.4,54.9,29.81,North,354,6.0,10.0,91,0.00,,,0.00,meteohub,2013-09-15 12:34:00,
2013-09-15 05:39:00,57.4,54.9,29.82,NNW,339,1.0,10.0,91,0.00,,,0.00,meteohub,2013-09-15 12:39:00,
2013-09-15 05:44:00,57.4,54.9,29.82,NNW,328,2.0,8.0,91,0.00,,,0.00,meteohub,2013-09-15 12:44:00,
2013-09-15 05:49:00,57.4,54.5,29.82,North,354,4.0,8.0,90,0.00,,,0.00,meteohub,2013-09-15 12:49:00,
2013-09-15 05:54:00,57.4,54.5,29.82,NNW,348,3.0,8.0,90,0.00,,,0.00,meteohub,2013-09-15 12:54:00,
2013-09-15 05:59:00,57.4,54.5,29.82,North,8,2.0,9.0,90,0.00,,,0.00,meteohub,2013-09-15 12:59:00,
2013-09-15 06:04:00,57.4,54.5,29.82,North,5,3.0,9.0,90,0.00,,,0.00,meteohub,2013-09-15 13:04:00,
2013-09-15 06:09:00,57.2,54.3,29.82,NNW,340,3.0,8.0,90,0.00,,,0.00,meteohub,2013-09-15 13:09:00,
2013-09-15 06:14:00,57.0,54.5,29.82,NNE,23,3.0,8.0,91,0.00,,,0.00,meteohub,2013-09-15 13:14:00,
2013-09-15 06:19:00,57.0,54.5,29.82,North,352,2.0,8.0,91,0.00,,,0.00,meteohub,2013-09-15 13:19:00,
2013-09-15 06:24:00,57.0,54.5,29.83,NNE,22,2.0,7.0,91,0.00,,,0.00,meteohub,2013-09-15 13:24:00,
2013-09-15 06:30:00,56.8,54.3,29.83,NNW,340,0.0,7.0,91,0.00,,,0.00,meteohub,2013-09-15 13:30:00,
2013-09-15 06:35:00,56.8,54.3,29.83,North,349,0.0,6.0,91,0.00,,,0.00,meteohub,2013-09-15 13:35:00,
2013-09-15 06:40:00,56.8,54.3,29.83,SW,217,0.0,5.0,91,0.00,,,0.00,meteohub,2013-09-15 13:40:00,
2013-09-15 06:45:00,56.8,54.3,29.83,North,8,0.0,4.0,91,0.00,,,0.00,meteohub,2013-09-15 13:45:00,
2013-09-15 06:50:00,56.8,54.5,29.83,NNE,15,3.0,5.0,92,0.00,,,0.00,meteohub,2013-09-15 13:50:00,
2013-09-15 06:55:00,57.0,54.7,29.83,West,276,0.0,8.0,92,0.00,,,0.00,meteohub,2013-09-15 13:55:00,
2013-09-15 07:00:00,57.2,54.9,29.83,North,352,4.0,8.0,92,0.00,,,0.00,meteohub,2013-09-15 14:00:00,
2013-09-15 07:05:00,57.4,55.0,29.83,NE,44,3.0,10.0,92,0.00,,,0.00,meteohub,2013-09-15 14:05:00,
2013-09-15 07:10:00,57.6,55.0,29.83,North,11,2.0,11.0,91,0.00,,,0.00,meteohub,2013-09-15 14:10:00,
2013-09-15 07:15:00,57.7,55.2,29.83,NW,324,4.0,11.0,91,0.00,,,0.00,meteohub,2013-09-15 14:15:00,
2013-09-15 07:21:00,57.9,55.2,29.83,North,355,6.0,11.0,91,0.00,,,0.00,meteohub,2013-09-15 14:21:00,
2013-09-15 07:26:00,57.9,55.0,29.83,North,11,5.0,11.0,90,0.00,,,0.00,meteohub,2013-09-15 14:26:00,
2013-09-15 07:31:00,58.3,55.4,29.84,NNW,342,1.0,11.0,90,0.00,,,0.00,meteohub,2013-09-15 14:31:00,
2013-09-15 07:36:00,58.3,55.4,29.84,WSW,240,0.0,13.0,90,0.00,,,0.00,meteohub,2013-09-15 14:36:00,
2013-09-15 07:41:00,58.5,55.2,29.84,North,352,5.0,13.0,89,0.00,,,0.00,meteohub,2013-09-15 14:41:00,
2013-09-15 07:46:00,58.6,55.4,29.84,NW,314,5.0,13.0,89,0.00,,,0.00,meteohub,2013-09-15 14:46:00,
2013-09-15 07:51:00,58.6,55.4,29.84,NNW,347,12.0,14.0,89,0.00,,,0.00,meteohub,2013-09-15 14:51:00,
2013-09-15 07:56:00,58.8,55.6,29.84,NNW,345,8.0,14.0,89,0.00,,,0.00,meteohub,2013-09-15 14:56:00,
2013-09-15 08:02:00,58.8,55.6,29.84,NNE,13,6.0,14.0,89,0.00,,,0.00,meteohub,2013-09-15 15:02:00,
2013-09-15 08:07:00,58.8,55.6,29.85,NW,322,7.0,14.0,89,0.00,,,0.00,meteohub,2013-09-15 15:07:00,
2013-09-15 08:12:00,59.0,55.4,29.85,North,4,2.0,14.0,88,0.00,,,0.00,meteohub,2013-09-15 15:12:00,
2013-09-15 08:17:00,59.0,55.4,29.85,NE,37,7.0,14.0,88,0.00,,,0.00,meteohub,2013-09-15 15:17:00,
2013-09-15 08:22:00,59.2,55.6,29.85,NNW,338,3.0,14.0,88,0.00,,,0.00,meteohub,2013-09-15 15:22:00,
2013-09-15 08:27:00,59.2,55.6,29.85,North,1,11.0,14.0,88,0.00,,,0.00,meteohub,2013-09-15 15:27:00,
2013-09-15 08:32:00,59.2,55.6,29.85,NNE,15,5.0,14.0,88,0.00,,,0.00,meteohub,2013-09-15 15:32:00,
2013-09-15 08:37:00,59.4,55.8,29.85,North,1,8.0,14.0,88,0.00,,,0.00,meteohub,2013-09-15 15:37:00,
2013-09-15 08:42:00,59.5,55.9,29.86,NE,51,1.0,14.0,88,0.00,,,0.00,meteohub,2013-09-15 15:42:00,
2013-09-15 08:48:00,59.5,55.6,29.86,SSE,163,0.0,11.0,87,0.00,,,0.00,meteohub,2013-09-15 15:48:00,
2013-09-15 08:53:00,59.7,55.8,29.86,NW,311,2.0,9.0,87,0.00,,,0.00,meteohub,2013-09-15 15:53:00,
2013-09-15 08:58:00,60.1,55.9,29.86,NNW,333,5.0,8.0,86,0.00,,,0.00,meteohub,2013-09-15 15:58:00,
2013-09-15 09:03:00,60.1,55.9,29.86,NNW,347,8.0,8.0,86,0.00,,,0.00,meteohub,2013-09-15 16:03:00,
2013-09-15 09:08:00,60.3,56.1,29.86,North,1,1.0,8.0,86,0.00,,,0.00,meteohub,2013-09-15 16:08:00,
2013-09-15 09:13:00,60.4,56.3,29.86,North,6,6.0,10.0,86,0.00,,,0.00,meteohub,2013-09-15 16:13:00,
2013-09-15 09:18:00,60.6,56.1,29.86,North,350,3.0,10.0,85,0.00,,,0.00,meteohub,2013-09-15 16:18:00,
2013-09-15 09:23:00,61.0,55.8,29.86,NW,326,9.0,9.0,83,0.00,,,0.00,meteohub,2013-09-15 16:23:00,
2013-09-15 09:28:00,61.0,56.1,29.87,North,359,8.0,10.0,84,0.00,,,0.00,meteohub,2013-09-15 16:28:00,
2013-09-15 09:33:00,61.3,56.1,29.87,North,4,3.0,11.0,83,0.00,,,0.00,meteohub,2013-09-15 16:33:00,
2013-09-15 09:38:00,61.5,55.9,29.87,NNE,25,3.0,11.0,82,0.00,,,0.00,meteohub,2013-09-15 16:38:00,
2013-09-15 09:44:00,62.1,56.5,29.87,North,352,6.0,11.0,82,0.00,,,0.00,meteohub,2013-09-15 16:44:00,
2013-09-15 09:49:00,62.1,56.1,29.87,North,1,3.0,10.0,81,0.00,,,0.00,meteohub,2013-09-15 16:49:00,
2013-09-15 09:54:00,62.2,56.3,29.87,NNE,13,7.0,10.0,81,0.00,,,0.00,meteohub,2013-09-15 16:54:00,
2013-09-15 09:59:00,62.4,56.1,29.87,North,9,10.0,10.0,80,0.00,,,0.00,meteohub,2013-09-15 16:59:00,
2013-09-15 10:04:00,62.6,56.7,29.87,NNE,25,4.0,10.0,81,0.00,,,0.00,meteohub,2013-09-15 17:04:00,
2013-09-15 10:09:00,62.8,56.1,29.87,North,0,8.0,10.0,79,0.00,,,0.00,meteohub,2013-09-15 17:09:00,
2013-09-15 10:14:00,62.8,56.1,29.87,North,356,9.0,10.0,79,0.00,,,0.00,meteohub,2013-09-15 17:14:00,
2013-09-15 10:19:00,63.1,56.5,29.88,North,356,4.0,10.0,79,0.00,,,0.00,meteohub,2013-09-15 17:19:00,
2013-09-15 10:24:00,63.3,56.3,29.88,North,354,7.0,10.0,78,0.00,,,0.00,meteohub,2013-09-15 17:24:00,
2013-09-15 10:29:00,63.3,56.3,29.88,NW,322,4.0,12.0,78,0.00,,,0.00,meteohub,2013-09-15 17:29:00,
2013-09-15 10:35:00,63.7,56.7,29.88,NW,325,4.0,12.0,78,0.00,,,0.00,meteohub,2013-09-15 17:35:00,
2013-09-15 10:40:00,63.9,56.8,29.87,NNE,24,4.0,12.0,78,0.00,,,0.00,meteohub,2013-09-15 17:40:00,
2013-09-15 10:45:00,64.2,56.8,29.88,NNW,328,5.0,14.0,77,0.00,,,0.00,meteohub,2013-09-15 17:45:00,
2013-09-15 10:50:00,64.2,56.8,29.87,NNE,32,8.0,14.0,77,0.00,,,0.00,meteohub,2013-09-15 17:50:00,
2013-09-15 10:55:00,64.0,56.7,29.87,NNE,23,11.0,16.0,77,0.00,,,0.00,meteohub,2013-09-15 17:55:00,
2013-09-15 11:00:00,64.2,56.8,29.87,North,1,7.0,16.0,77,0.00,,,0.00,meteohub,2013-09-15 18:00:00,
2013-09-15 11:05:00,64.4,56.7,29.87,North,4,7.0,16.0,76,0.00,,,0.00,meteohub,2013-09-15 18:05:00,
2013-09-15 11:10:00,64.6,56.8,29.87,North,352,10.0,15.0,76,0.00,,,0.00,meteohub,2013-09-15 18:10:00,
2013-09-15 11:15:00,64.8,56.7,29.88,NNW,343,8.0,15.0,75,0.00,,,0.00,meteohub,2013-09-15 18:15:00,
2013-09-15 11:20:00,64.9,56.8,29.88,NNW,340,5.0,16.0,75,0.00,,,0.00,meteohub,2013-09-15 18:20:00,
2013-09-15 11:26:00,64.9,56.8,29.88,North,9,6.0,16.0,75,0.00,,,0.00,meteohub,2013-09-15 18:26:00,
2013-09-15 11:31:00,65.3,56.8,29.88,NE,43,5.0,14.0,74,0.00,,,0.00,meteohub,2013-09-15 18:31:00,
2013-09-15 11:36:00,65.5,57.0,29.88,NNW,346,9.0,16.0,74,0.00,,,0.00,meteohub,2013-09-15 18:36:00,
2013-09-15 11:41:00,65.7,57.2,29.88,NNE,13,8.0,16.0,74,0.00,,,0.00,meteohub,2013-09-15 18:41:00,
2013-09-15 11:46:00,65.1,56.7,29.88,NNW,329,9.0,19.0,74,0.00,,,0.00,meteohub,2013-09-15 18:46:00,
2013-09-15 11:51:00,65.1,57.0,29.88,North,9,7.0,19.0,75,0.00,,,0.00,meteohub,2013-09-15 18:51:00,
2013-09-15 11:56:00,65.1,56.7,29.88,North,6,4.0,19.0,74,0.00,,,0.00,meteohub,2013-09-15 18:56:00,
2013-09-15 12:01:00,65.3,56.8,29.88,North,1,2.0,17.0,74,0.00,,,0.00,meteohub,2013-09-15 19:01:00,
2013-09-15 12:06:00,65.5,57.0,29.88,NNW,332,5.0,15.0,74,0.00,,,0.00,meteohub,2013-09-15 19:06:00,
2013-09-15 12:11:00,65.7,57.2,29.88,North,6,1.0,15.0,74,0.00,,,0.00,meteohub,2013-09-15 19:11:00,
2013-09-15 12:17:00,66.0,57.2,29.88,North,11,11.0,12.0,73,0.00,,,0.00,meteohub,2013-09-15 19:17:00,
2013-09-15 12:19:00,66.0,56.7,29.88,NNE,25,5.0,12.0,72,0.00,,,0.00,meteohub,2013-09-15 19:19:00,
2013-09-15 12:24:00,66.0,57.2,29.88,North,4,13.0,14.0,73,0.00,,,0.00,meteohub,2013-09-15 19:24:00,
2013-09-15 12:29:00,66.6,57.2,29.88,NW,311,4.0,15.0,72,0.00,,,0.00,meteohub,2013-09-15 19:29:00,
2013-09-15 12:34:00,67.1,57.4,29.88,NNE,20,1.0,15.0,71,0.00,,,0.00,meteohub,2013-09-15 19:34:00,
2013-09-15 12:39:00,67.6,57.6,29.87,North,4,7.0,15.0,70,0.00,,,0.00,meteohub,2013-09-15 19:39:00,
2013-09-15 12:44:00,67.1,57.0,29.87,NNW,333,8.0,13.0,70,0.00,,,0.00,meteohub,2013-09-15 19:44:00,
2013-09-15 12:49:00,66.7,56.7,29.87,NNE,27,10.0,14.0,70,0.00,,,0.00,meteohub,2013-09-15 19:49:00,
2013-09-15 12:54:00,66.6,57.2,29.87,NNE,27,4.0,16.0,72,0.00,,,0.00,meteohub,2013-09-15 19:54:00,
2013-09-15 12:59:00,67.1,57.0,29.87,NNE,19,7.0,16.0,70,0.00,,,0.00,meteohub,2013-09-15 19:59:00,
2013-09-15 13:04:00,67.6,57.9,29.88,NNE,20,5.0,16.0,71,0.00,,,0.00,meteohub,2013-09-15 20:04:00,
2013-09-15 13:09:00,68.2,57.6,29.88,NNE,15,1.0,16.0,69,0.00,,,0.00,meteohub,2013-09-15 20:09:00,
2013-09-15 13:15:00,68.4,57.7,29.88,NW,323,4.0,16.0,69,0.00,,,0.00,meteohub,2013-09-15 20:15:00,
2013-09-15 13:20:00,68.7,58.1,29.88,NNW,333,4.0,12.0,69,0.00,,,0.00,meteohub,2013-09-15 20:20:00,
2013-09-15 13:25:00,68.5,57.2,29.88,North,1,5.0,12.0,67,0.00,,,0.00,meteohub,2013-09-15 20:25:00,
2013-09-15 13:30:00,68.7,57.4,29.88,North,1,8.0,12.0,67,0.00,,,0.00,meteohub,2013-09-15 20:30:00,
2013-09-15 13:35:00,68.2,57.6,29.87,North,11,11.0,13.0,69,0.00,,,0.00,meteohub,2013-09-15 20:35:00,
2013-09-15 13:40:00,67.8,57.2,29.87,NNW,331,6.0,17.0,69,0.00,,,0.00,meteohub,2013-09-15 20:40:00,
2013-09-15 13:45:00,68.4,57.7,29.87,NNE,16,8.0,18.0,69,0.00,,,0.00,meteohub,2013-09-15 20:45:00,
2013-09-15 13:50:00,68.7,57.7,29.87,NNW,330,10.0,18.0,68,0.00,,,0.00,meteohub,2013-09-15 20:50:00,
2013-09-15 13:55:00,68.5,57.6,29.87,NW,325,4.0,17.0,68,0.00,,,0.00,meteohub,2013-09-15 20:55:00,
2013-09-15 14:00:00,67.8,56.8,29.87,North,354,7.0,17.0,68,0.00,,,0.00,meteohub,2013-09-15 21:00:00,
2013-09-15 14:05:00,67.8,57.7,29.87,North,5,6.0,17.0,70,0.00,,,0.00,meteohub,2013-09-15 21:05:00,
2013-09-15 14:11:00,68.2,58.1,29.87,North,0,9.0,17.0,70,0.00,,,0.00,meteohub,2013-09-15 21:11:00,
2013-09-15 14:16:00,68.2,57.6,29.87,North,6,10.0,16.0,69,0.00,,,0.00,meteohub,2013-09-15 21:16:00,
2013-09-15 14:21:00,67.6,57.6,29.87,NNE,13,8.0,16.0,70,0.00,,,0.00,meteohub,2013-09-15 21:21:00,
2013-09-15 14:26:00,67.3,57.2,29.86,NE,36,7.0,16.0,70,0.00,,,0.00,meteohub,2013-09-15 21:26:00,
2013-09-15 14:31:00,67.1,57.4,29.86,North,0,8.0,16.0,71,0.00,,,0.00,meteohub,2013-09-15 21:31:00,
2013-09-15 14:36:00,66.7,57.4,29.86,East,82,4.0,16.0,72,0.00,,,0.00,meteohub,2013-09-15 21:36:00,
2013-09-15 14:41:00,67.3,57.6,29.86,West,259,5.0,16.0,71,0.00,,,0.00,meteohub,2013-09-15 21:41:00,
2013-09-15 14:46:00,67.3,57.6,29.86,NE,44,6.0,16.0,71,0.00,,,0.00,meteohub,2013-09-15 21:46:00,
2013-09-15 14:51:00,67.3,57.2,29.86,North,352,9.0,16.0,70,0.00,,,0.00,meteohub,2013-09-15 21:51:00,
2013-09-15 14:56:00,67.1,57.4,29.86,NNW,328,7.0,16.0,71,0.00,,,0.00,meteohub,2013-09-15 21:56:00,
2013-09-15 15:01:00,67.3,57.6,29.86,NNW,344,5.0,19.0,71,0.00,,,0.00,meteohub,2013-09-15 22:01:00,
2013-09-15 15:07:00,67.1,57.4,29.86,North,9,12.0,19.0,71,0.00,,,0.00,meteohub,2013-09-15 22:07:00,
2013-09-15 15:12:00,67.1,57.4,29.85,ENE,58,8.0,19.0,71,0.00,,,0.00,meteohub,2013-09-15 22:12:00,
2013-09-15 15:17:00,66.9,57.2,29.85,North,1,7.0,18.0,71,0.00,,,0.00,meteohub,2013-09-15 22:17:00,
2013-09-15 15:22:00,67.3,57.6,29.85,North,0,11.0,17.0,71,0.00,,,0.00,meteohub,2013-09-15 22:22:00,
2013-09-15 15:27:00,67.6,57.9,29.85,NNE,12,10.0,17.0,71,0.00,,,0.00,meteohub,2013-09-15 22:27:00,
2013-09-15 15:32:00,67.8,57.7,29.85,SSE,167,6.0,14.0,70,0.00,,,0.00,meteohub,2013-09-15 22:32:00,
2013-09-15 15:37:00,67.8,57.7,29.85,NNW,338,3.0,21.0,70,0.00,,,0.00,meteohub,2013-09-15 22:37:00,
2013-09-15 15:42:00,67.6,57.9,29.85,North,349,12.0,21.0,71,0.00,,,0.00,meteohub,2013-09-15 22:42:00,
2013-09-15 15:47:00,67.5,57.7,29.85,North,352,5.0,18.0,71,0.00,,,0.00,meteohub,2013-09-15 22:47:00,
2013-09-15 15:52:00,67.5,57.7,29.85,NW,316,6.0,18.0,71,0.00,,,0.00,meteohub,2013-09-15 22:52:00,
2013-09-15 15:57:00,67.3,57.6,29.85,NNE,13,13.0,18.0,71,0.00,,,0.00,meteohub,2013-09-15 22:57:00,
2013-09-15 16:02:00,66.9,57.6,29.85,NNE,12,12.0,25.0,72,0.00,,,0.00,meteohub,2013-09-15 23:02:00,
2013-09-15 16:07:00,66.9,58.3,29.85,North,6,7.0,25.0,74,0.00,,,0.00,meteohub,2013-09-15 23:07:00,
2013-09-15 16:12:00,67.3,58.3,29.85,North,352,7.0,25.0,73,0.00,,,0.00,meteohub,2013-09-15 23:12:00,
2013-09-15 16:17:00,67.5,58.1,29.84,North,356,6.0,17.0,72,0.00,,,0.00,meteohub,2013-09-15 23:17:00,
2013-09-15 16:22:00,67.6,58.3,29.84,NNW,340,7.0,15.0,72,0.00,,,0.00,meteohub,2013-09-15 23:22:00,
2013-09-15 16:27:00,67.5,58.5,29.84,NE,51,7.0,15.0,73,0.00,,,0.00,meteohub,2013-09-15 23:27:00,
2013-09-15 16:32:00,67.1,58.1,29.84,North,354,7.0,15.0,73,0.00,,,0.00,meteohub,2013-09-15 23:32:00,
2013-09-15 16:37:00,66.9,58.3,29.84,North,6,9.0,18.0,74,0.00,,,0.00,meteohub,2013-09-15 23:37:00,
2013-09-15 16:42:00,66.9,58.3,29.84,NNE,26,11.0,18.0,74,0.00,,,0.00,meteohub,2013-09-15 23:42:00,
2013-09-15 16:47:00,67.3,58.6,29.84,North,352,15.0,18.0,74,0.00,,,0.00,meteohub,2013-09-15 23:47:00,
2013-09-15 16:52:00,66.9,58.3,29.84,NNW,338,11.0,17.0,74,0.00,,,0.00,meteohub,2013-09-15 23:52:00,
2013-09-15 16:57:00,67.1,58.5,29.83,NNW,343,5.0,18.0,74,0.00,,,0.00,meteohub,2013-09-15 23:57:00,
2013-09-15 17:02:00,67.5,58.8,29.83,NE,56,9.0,18.0,74,0.00,,,0.00,meteohub,2013-09-16 00:02:00,
2013-09-15 17:07:00,67.6,59.0,29.83,North,4,7.0,18.0,74,0.00,,,0.00,meteohub,2013-09-16 00:07:00,
2013-09-15 17:12:00,67.5,58.5,29.83,NW,305,6.0,13.0,73,0.00,,,0.00,meteohub,2013-09-16 00:12:00,
2013-09-15 17:17:00,67.5,58.8,29.83,NNE,22,6.0,13.0,74,0.00,,,0.00,meteohub,2013-09-16 00:17:00,
2013-09-15 17:22:00,67.3,59.0,29.83,NNE,27,5.0,15.0,75,0.00,,,0.00,meteohub,2013-09-16 00:22:00,
2013-09-15 17:27:00,67.1,58.8,29.84,North,350,6.0,15.0,75,0.00,,,0.00,meteohub,2013-09-16 00:27:00,
2013-09-15 17:32:00,66.7,59.0,29.83,NNW,327,8.0,15.0,76,0.00,,,0.00,meteohub,2013-09-16 00:32:00,
2013-09-15 17:37:00,66.4,59.0,29.84,NW,314,9.0,15.0,77,0.00,,,0.00,meteohub,2013-09-16 00:37:00,
2013-09-15 17:42:00,66.2,59.2,29.84,WNW,287,6.0,15.0,78,0.00,,,0.00,meteohub,2013-09-16 00:42:00,
2013-09-15 17:47:00,66.2,58.8,29.84,NNE,23,8.0,15.0,77,0.00,,,0.00,meteohub,2013-09-16 00:47:00,
2013-09-15 17:52:00,66.0,59.0,29.84,NNW,347,7.0,14.0,78,0.00,,,0.00,meteohub,2013-09-16 00:52:00,
2013-09-15 17:57:00,65.7,58.6,29.84,North,6,5.0,16.0,78,0.00,,,0.00,meteohub,2013-09-16 00:57:00,
2013-09-15 18:02:00,65.1,58.5,29.84,North,350,5.0,16.0,79,0.00,,,0.00,meteohub,2013-09-16 01:02:00,
2013-09-15 18:07:00,64.9,58.6,29.84,NNE,25,8.0,16.0,80,0.00,,,0.00,meteohub,2013-09-16 01:07:00,
2013-09-15 18:12:00,64.6,58.6,29.84,NNW,330,6.0,16.0,81,0.00,,,0.00,meteohub,2013-09-16 01:12:00,
2013-09-15 18:17:00,64.2,58.3,29.84,NW,309,5.0,16.0,81,0.00,,,0.00,meteohub,2013-09-16 01:17:00,
2013-09-15 18:22:00,64.0,58.5,29.84,NW,316,5.0,18.0,82,0.00,,,0.00,meteohub,2013-09-16 01:22:00,
2013-09-15 18:27:00,63.9,58.6,29.84,North,356,10.0,18.0,83,0.00,,,0.00,meteohub,2013-09-16 01:27:00,
2013-09-15 18:32:00,64.0,58.8,29.84,North,359,5.0,18.0,83,0.00,,,0.00,meteohub,2013-09-16 01:32:00,
2013-09-15 18:37:00,64.0,58.8,29.84,NW,320,8.0,14.0,83,0.00,,,0.00,meteohub,2013-09-16 01:37:00,
2013-09-15 18:42:00,64.0,59.2,29.84,NNW,328,5.0,14.0,84,0.00,,,0.00,meteohub,2013-09-16 01:42:00,
2013-09-15 18:47:00,64.0,58.8,29.84,NW,304,3.0,14.0,83,0.00,,,0.00,meteohub,2013-09-16 01:47:00,
2013-09-15 18:52:00,64.0,58.8,29.84,NW,320,5.0,14.0,83,0.00,,,0.00,meteohub,2013-09-16 01:52:00,
2013-09-15 18:57:00,64.0,58.8,29.84,NW,324,6.0,13.0,83,0.00,,,0.00,meteohub,2013-09-16 01:57:00,
2013-09-15 19:02:00,63.9,58.6,29.84,NW,316,2.0,17.0,83,0.00,,,0.00,meteohub,2013-09-16 02:02:00,
2013-09-15 19:07:00,63.7,58.5,29.84,North,4,2.0,17.0,83,0.00,,,0.00,meteohub,2013-09-16 02:07:00,
2013-09-15 19:12:00,63.5,58.6,29.84,NW,305,10.0,16.0,84,0.00,,,0.00,meteohub,2013-09-16 02:12:00,
2013-09-15 19:17:00,63.1,58.6,29.84,NNW,345,8.0,16.0,85,0.00,,,0.00,meteohub,2013-09-16 02:17:00,
2013-09-15 19:22:00,63.0,58.5,29.84,North,9,10.0,12.0,85,0.00,,,0.00,meteohub,2013-09-16 02:22:00,
2013-09-15 19:27:00,63.0,58.6,29.85,NNW,346,4.0,12.0,86,0.00,,,0.00,meteohub,2013-09-16 02:27:00,
2013-09-15 19:32:00,62.8,58.8,29.84,North,354,7.0,14.0,87,0.00,,,0.00,meteohub,2013-09-16 02:32:00,
2013-09-15 19:37:00,62.4,58.5,29.85,NNW,329,4.0,14.0,87,0.00,,,0.00,meteohub,2013-09-16 02:37:00,
2013-09-15 19:42:00,62.4,58.8,29.84,North,356,2.0,15.0,88,0.00,,,0.00,meteohub,2013-09-16 02:42:00,
2013-09-15 19:47:00,62.2,58.6,29.84,NNE,29,9.0,15.0,88,0.00,,,0.00,meteohub,2013-09-16 02:47:00,
2013-09-15 19:52:00,62.2,59.0,29.85,North,356,5.0,15.0,89,0.00,,,0.00,meteohub,2013-09-16 02:52:00,
2013-09-15 19:57:00,62.2,59.0,29.85,North,1,3.0,14.0,89,0.00,,,0.00,meteohub,2013-09-16 02:57:00,
2013-09-15 20:02:00,62.2,59.2,29.85,NW,309,3.0,14.0,90,0.00,,,0.00,meteohub,2013-09-16 03:02:00,
2013-09-15 20:07:00,62.2,59.2,29.85,NNW,338,4.0,12.0,90,0.00,,,0.00,meteohub,2013-09-16 03:07:00,
2013-09-15 20:12:00,62.2,59.2,29.85,NNE,33,2.0,12.0,90,0.00,,,0.00,meteohub,2013-09-16 03:12:00,
2013-09-15 20:17:00,62.2,59.5,29.85,NNE,19,5.0,12.0,91,0.00,,,0.00,meteohub,2013-09-16 03:17:00,
2013-09-15 20:22:00,62.2,59.5,29.85,NW,304,1.0,9.0,91,0.00,,,0.00,meteohub,2013-09-16 03:22:00,
2013-09-15 20:27:00,62.2,59.5,29.85,North,350,6.0,12.0,91,0.00,,,0.00,meteohub,2013-09-16 03:27:00,
2013-09-15 20:32:00,62.2,59.9,29.86,NNE,32,7.0,14.0,92,0.00,,,0.00,meteohub,2013-09-16 03:32:00,
2013-09-15 20:37:00,62.2,59.9,29.86,NW,314,4.0,14.0,92,0.00,,,0.00,meteohub,2013-09-16 03:37:00,
2013-09-15 20:42:00,62.2,59.9,29.86,NNW,335,5.0,14.0,92,0.00,,,0.00,meteohub,2013-09-16 03:42:00,
2013-09-15 20:47:00,62.2,59.9,29.86,NNW,342,6.0,13.0,92,0.00,,,0.00,meteohub,2013-09-16 03:47:00,
2013-09-15 20:52:00,62.2,59.9,29.86,North,356,1.0,13.0,92,0.00,,,0.00,meteohub,2013-09-16 03:52:00,
2013-09-15 20:57:00,62.2,59.9,29.86,NNE,29,4.0,13.0,92,0.00,,,0.00,meteohub,2013-09-16 03:57:00,
2013-09-15 21:01:00,62.2,59.9,29.86,NNE,15,9.0,13.0,92,0.00,,,0.00,meteohub,2013-09-16 04:01:00,
2013-09-15 21:02:00,62.2,59.9,29.86,NNW,342,2.0,13.0,92,0.00,,,0.00,meteohub,2013-09-16 04:02:00,
2013-09-15 21:03:00,62.2,60.3,29.86,North,11,5.0,13.0,93,0.00,,,0.00,meteohub,2013-09-16 04:03:00,
2013-09-15 21:04:00,62.2,60.3,29.86,NNW,340,5.0,13.0,93,0.00,,,0.00,meteohub,2013-09-16 04:04:00,
2013-09-15 21:05:00,62.2,60.3,29.86,NNE,13,7.0,13.0,93,0.00,,,0.00,meteohub,2013-09-16 04:05:00,
2013-09-15 21:10:00,62.2,60.3,29.86,North,9,7.0,12.0,93,0.00,,,0.00,meteohub,2013-09-16 04:10:00,
2013-09-15 21:15:00,62.2,60.3,29.87,NNW,344,4.0,16.0,93,0.00,,,0.00,meteohub,2013-09-16 04:15:00,
2013-09-15 21:20:00,62.2,60.3,29.87,North,356,7.0,16.0,93,0.00,,,0.00,meteohub,2013-09-16 04:20:00,
2013-09-15 21:25:00,62.2,60.3,29.86,WNW,297,2.0,11.0,93,0.00,,,0.00,meteohub,2013-09-16 04:25:00,
2013-09-15 21:30:00,62.2,60.3,29.86,NNE,15,7.0,11.0,93,0.00,,,0.00,meteohub,2013-09-16 04:30:00,
2013-09-15 21:35:00,62.2,60.3,29.86,NNE,16,5.0,11.0,93,0.00,,,0.00,meteohub,2013-09-16 04:35:00,
2013-09-15 21:40:00,62.2,60.3,29.86,NW,326,4.0,9.0,93,0.00,,,0.00,meteohub,2013-09-16 04:40:00,
2013-09-15 21:45:00,62.2,60.3,29.86,North,359,2.0,11.0,93,0.00,,,0.00,meteohub,2013-09-16 04:45:00,
2013-09-15 21:50:00,62.1,60.1,29.86,NNW,328,6.0,11.0,93,0.00,,,0.00,meteohub,2013-09-16 04:50:00,
2013-09-15 21:56:00,62.1,60.1,29.86,NW,306,1.0,11.0,93,0.00,,,0.00,meteohub,2013-09-16 04:56:00,
2013-09-15 22:01:00,61.9,59.9,29.86,NNW,346,1.0,10.0,93,0.00,,,0.00,meteohub,2013-09-16 05:01:00,
2013-09-15 22:06:00,61.9,60.1,29.86,NNW,345,4.0,10.0,94,0.00,,,0.00,meteohub,2013-09-16 05:06:00,
2013-09-15 22:11:00,61.9,60.1,29.86,NNE,16,5.0,12.0,94,0.00,,,0.00,meteohub,2013-09-16 05:11:00,
2013-09-15 22:16:00,61.7,59.9,29.86,North,357,5.0,12.0,94,0.00,,,0.00,meteohub,2013-09-16 05:16:00,
2013-09-15 22:21:00,61.7,59.9,29.86,North,0,7.0,12.0,94,0.00,,,0.00,meteohub,2013-09-16 05:21:00,
2013-09-15 22:26:00,61.7,59.9,29.86,NNW,334,1.0,14.0,94,0.00,,,0.00,meteohub,2013-09-16 05:26:00,
2013-09-15 22:31:00,61.7,59.9,29.86,NNW,342,6.0,14.0,94,0.00,,,0.00,meteohub,2013-09-16 05:31:00,
2013-09-15 22:36:00,61.5,59.7,29.87,NE,53,3.0,13.0,94,0.00,,,0.00,meteohub,2013-09-16 05:36:00,
2013-09-15 22:41:00,61.5,59.7,29.87,North,352,3.0,10.0,94,0.00,,,0.00,meteohub,2013-09-16 05:41:00,
2013-09-15 22:46:00,61.5,59.7,29.87,NE,56,4.0,10.0,94,0.00,,,0.00,meteohub,2013-09-16 05:46:00,
2013-09-15 22:52:00,61.5,59.7,29.87,NE,37,8.0,9.0,94,0.00,,,0.00,meteohub,2013-09-16 05:52:00,
2013-09-15 22:57:00,61.5,59.7,29.87,NW,309,3.0,8.0,94,0.00,,,0.00,meteohub,2013-09-16 05:57:00,
2013-09-15 23:02:00,61.5,59.7,29.87,NNW,328,1.0,8.0,94,0.00,,,0.00,meteohub,2013-09-16 06:02:00,
2013-09-15 23:07:00,61.5,60.1,29.87,North,11,5.0,8.0,95,0.00,,,0.00,meteohub,2013-09-16 06:07:00,
2013-09-15 23:12:00,61.3,59.9,29.87,NNW,338,2.0,7.0,95,0.00,,,0.00,meteohub,2013-09-16 06:12:00,
2013-09-15 23:17:00,61.3,59.9,29.87,NNE,27,6.0,8.0,95,0.00,,,0.00,meteohub,2013-09-16 06:17:00,
2013-09-15 23:22:00,61.3,59.9,29.87,WNW,292,7.0,9.0,95,0.00,,,0.00,meteohub,2013-09-16 06:22:00,
2013-09-15 23:27:00,61.2,59.7,29.87,WNW,301,4.0,9.0,95,0.00,,,0.00,meteohub,2013-09-16 06:27:00,
2013-09-15 23:32:00,61.2,59.7,29.87,NNW,330,3.0,9.0,95,0.00,,,0.00,meteohub,2013-09-16 06:32:00,
2013-09-15 23:37:00,61.0,59.5,29.87,NNE,16,4.0,8.0,95,0.00,,,0.00,meteohub,2013-09-16 06:37:00,
2013-09-15 23:42:00,61.0,59.5,29.87,ENE,68,0.0,6.0,95,0.00,,,0.00,meteohub,2013-09-16 06:42:00,
2013-09-15 23:47:00,61.0,59.5,29.87,NNW,346,4.0,7.0,95,0.00,,,0.00,meteohub,2013-09-16 06:47:00,
2013-09-15 23:52:00,61.0,59.5,29.87,NW,325,1.0,8.0,95,0.00,,,0.00,meteohub,2013-09-16 06:52:00,
2013-09-15 23:57:00,61.0,59.5,29.87,NNE,26,2.0,8.0,95,0.00,,,0.00,meteohub,2013-09-16 06:57:00,